Bretagne — FNBR — position and weather

sailwx.info

Track history (hours):
 
Tides and Currents Weather Stations Pressure Air Temp Water Temp Dewpoint Dewpoint Depression Visibility Wind Speed Wind Dir Waves Ship Positions

Bretagne

Operator: Brittany Ferries

Last reported at 2018-Jun-22 05:28 UTC. Time now 2018-Jun-22 09:06 UTC.
Position N 48°44' W 002°07'.

Length 151 m; beam 27 m.

Type: Ship. MMSI: 227286000.

Date/timePositionNaut miles runAvg speedWind from/ knotsBaromVisibWave heightAir tempDewpointWater temp
2018-Jun-22 05:28N 48°44' W 002°07'2811.8
2018-Jun-22 03:06N 49°10' W 002°22'211.2
2018-Jun-22 02:53N 49°12' W 002°22'511.4
2018-Jun-22 02:28N 49°17' W 002°21'614.0
2018-Jun-22 02:00N 49°23' W 002°17'713.9
2018-Jun-22 01:30N 49°29' W 002°13'714.1
2018-Jun-22 01:00N 49°36' W 002°09'1113.1
2018-Jun-22 00:12N 49°45' W 002°01'314.3
2018-Jun-22 00:00N 49°47' W 001°59'3416.5
2018-Jun-21 21:55N 50°16' W 001°29'917.3
2018-Jun-21 21:23N 50°24' W 001°21'717.2
2018-Jun-21 20:58N 50°30' W 001°15'817.8
2018-Jun-21 20:31N 50°36' W 001°08'713.9
2018-Jun-21 20:01N 50°43' W 001°03'611.5
2018-Jun-21 19:31N 50°48' W 001°07'1 1.8
2018-Jun-21 19:00N 50°49' W 001°06'0 0.0
2018-Jun-21 18:30N 50°49' W 001°06'0 0.0
2018-Jun-21 18:00N 50°49' W 001°06'0 0.0
2018-Jun-21 17:30N 50°49' W 001°06'1 1.3
2018-Jun-21 17:00N 50°49' W 001°07'611.3
2018-Jun-21 16:30N 50°43' W 001°04'611.8
2018-Jun-21 16:00N 50°38' W 001°06'816.2
2018-Jun-21 15:30N 50°31' W 001°13'6318.4
2018-Jun-21 12:04N 49°37' W 002°06'220.9
2018-Jun-21 12:00N 49°36' W 002°07'1020.2
2018-Jun-21 11:30N 49°27' W 002°14'1019.7
2018-Jun-21 11:00N 49°18' W 002°20'2317.9
2018-Jun-21 09:43N 48°55' W 002°20'417.0
2018-Jun-21 09:30N 48°52' W 002°18'917.5
2018-Jun-21 09:00N 48°45' W 002°09'816.4
2018-Jun-21 08:30N 48°39' W 002°02'0 0.0
2018-Jun-21 05:04N 48°38' W 002°02'2 8.3
2018-Jun-21 04:53N 48°39' W 002°04'513.0
2018-Jun-21 04:30N 48°44' W 002°07'814.4
2018-Jun-21 03:57N 48°50' W 002°15'613.2
2018-Jun-21 03:30N 48°54' W 002°21'510.6
2018-Jun-21 03:00N 48°60' W 002°22'511.2
2018-Jun-21 02:30N 49°05' W 002°22'713.9
2018-Jun-21 01:59N 49°12' W 002°22'714.1
2018-Jun-21 01:30N 49°19' W 002°19'714.8
2018-Jun-21 01:00N 49°26' W 002°15'815.9
2018-Jun-21 00:31N 49°33' W 002°11'815.2
2018-Jun-21 00:01N 49°40' W 002°06'813.8
2018-Jun-20 23:27N 49°47' W 002°00'715.8
2018-Jun-20 23:00N 49°53' W 001°54'4018.9
2018-Jun-20 20:54N 50°26' W 001°19'919.6
2018-Jun-20 20:28N 50°33' W 001°12'818.7
2018-Jun-20 20:00N 50°40' W 001°04'713.2
2018-Jun-20 19:31N 50°46' W 001°06'2 4.4
2018-Jun-20 19:00N 50°49' W 001°06'0 0.0
2018-Jun-20 18:30N 50°49' W 001°06'0 0.0
2018-Jun-20 18:00N 50°49' W 001°06'0 0.0
2018-Jun-20 17:30N 50°49' W 001°06'0 0.0
2018-Jun-20 17:00N 50°49' W 001°06'0 0.0
2018-Jun-20 16:30N 50°49' W 001°06'0 0.0
2018-Jun-20 16:00N 50°49' W 001°06'0 0.0
2018-Jun-20 15:30N 50°49' W 001°06'0 0.0
2018-Jun-20 15:00N 50°49' W 001°06'0 0.0
2018-Jun-20 14:30N 50°49' W 001°06'0 0.0
2018-Jun-20 14:00N 50°49' W 001°06'0 0.0
2018-Jun-20 13:30N 50°49' W 001°06'0 0.0
2018-Jun-20 13:00N 50°49' W 001°06'0 0.0
2018-Jun-20 12:30N 50°49' W 001°06'0 0.0
2018-Jun-20 12:00N 50°49' W 001°06'0 0.0
2018-Jun-20 11:30N 50°49' W 001°06'0 0.0
2018-Jun-20 11:00N 50°49' W 001°06'0 0.0
2018-Jun-20 10:30N 50°49' W 001°06'0 0.0
2018-Jun-20 10:00N 50°49' W 001°06'0 0.0
2018-Jun-20 09:30N 50°49' W 001°06'0 0.0
2018-Jun-20 09:00N 50°49' W 001°06'0 0.0
2018-Jun-20 08:30N 50°49' W 001°06'0 0.0
2018-Jun-20 08:00N 50°49' W 001°06'0 0.0
2018-Jun-20 07:30N 50°49' W 001°06'0 0.0
2018-Jun-20 07:00N 50°49' W 001°06'0 0.2
2018-Jun-20 06:30N 50°49' W 001°06'5 9.1
2018-Jun-20 06:01N 50°44' W 001°04'612.4
2018-Jun-20 05:30N 50°38' W 001°06'713.8
2018-Jun-20 05:00N 50°33' W 001°13'714.2
2018-Jun-20 04:30N 50°27' W 001°19'714.9
2018-Jun-20 04:00N 50°21' W 001°27'713.2
2018-Jun-20 03:30N 50°16' W 001°33'812.5
2018-Jun-20 02:54N 50°09' W 001°37'614.3
2018-Jun-20 02:30N 50°04' W 001°42'816.2
2018-Jun-20 02:00N 49°58' W 001°51'815.3
2018-Jun-20 01:28N 49°52' W 001°58'714.0
2018-Jun-20 01:00N 49°46' W 002°03'814.8
2018-Jun-20 00:29N 49°38' W 002°06'613.3
2018-Jun-20 00:00N 49°33' W 002°10'713.4
2018-Jun-19 23:30N 49°27' W 002°15'713.6
2018-Jun-19 23:00N 49°20' W 002°19'713.7
2018-Jun-19 22:30N 49°14' W 002°22'38 3.2
2018-Jun-19 10:37N 48°38' W 002°02'2 3.9
2018-Jun-19 10:13N 48°39' W 002°04'2 9.1
2018-Jun-19 10:00N 48°41' W 002°06'4 8.2
2018-Jun-19 09:28N 48°45' W 002°08'3 5.7
2018-Jun-19 09:00N 48°43' W 002°06'5 3.8
2018-Jun-19 07:39N 48°38' W 002°02'0 0.0
2018-Jun-19 07:27N 48°38' W 002°02'0 0.0
2018-Jun-19 06:57N 48°38' W 002°02'0 0.2
2018-Jun-19 06:30N 48°38' W 002°02'5 9.9
2018-Jun-19 06:00N 48°42' W 002°07'713.9
2018-Jun-19 05:27N 48°48' W 002°13'714.4
2018-Jun-19 05:00N 48°53' W 002°20'713.1
2018-Jun-19 04:30N 48°60' W 002°22'814.4
2018-Jun-19 03:55N 49°08' W 002°23'715.1
2018-Jun-19 03:28N 49°15' W 002°23'817.6
2018-Jun-19 03:00N 49°22' W 002°18'817.0
2018-Jun-19 02:30N 49°30' W 002°12'816.8
2018-Jun-19 02:00N 49°37' W 002°06'815.8
2018-Jun-19 01:30N 49°45' W 002°00'1013.9
2018-Jun-19 00:46N 49°52' W 001°49'413.8
2018-Jun-19 00:30N 49°54' W 001°45'712.1
2018-Jun-18 23:55N 49°59' W 001°38'2412.3
2018-Jun-18 21:57N 50°21' W 001°19'613.8
2018-Jun-18 21:30N 50°26' W 001°14'713.9
2018-Jun-18 21:01N 50°32' W 001°08'714.4
2018-Jun-18 20:31N 50°37' W 001°01'611.9
2018-Jun-18 20:00N 50°43' W 001°01'612.3
2018-Jun-18 19:30N 50°48' W 001°07'1 1.4
2018-Jun-18 18:56N 50°49' W 001°06'0 0.0
2018-Jun-18 18:29N 50°49' W 001°06'0 0.0
2018-Jun-18 17:58N 50°49' W 001°06'0 0.0
2018-Jun-18 17:28N 50°49' W 001°06'0 0.7
2018-Jun-18 17:00N 50°49' W 001°06'510.6
2018-Jun-18 16:31N 50°44' W 001°03'713.3
2018-Jun-18 16:00N 50°37' W 001°07'612.1
2018-Jun-18 15:30N 50°33' W 001°13'713.6
2018-Jun-18 14:59N 50°27' W 001°19'1015.1
2018-Jun-18 14:19N 50°18' W 001°27'1416.1
2018-Jun-18 13:27N 50°07' W 001°41'1117.3
2018-Jun-18 12:49N 49°58' W 001°51'618.8
2018-Jun-18 12:28N 49°52' W 001°54'920.4
2018-Jun-18 12:00N 49°44' W 002°02'1122.0
2018-Jun-18 11:29N 49°33' W 001°59'1121.0
2018-Jun-18 10:59N 49°22' W 001°56'1020.2
2018-Jun-18 10:29N 49°13' W 001°52'919.5
2018-Jun-18 10:00N 49°03' W 001°50'1020.3
2018-Jun-18 09:30N 48°55' W 001°58'1119.3
2018-Jun-18 08:55N 48°44' W 002°00'512.2
2018-Jun-18 08:30N 48°39' W 002°02'0 0.2
2018-Jun-18 07:03N 48°38' W 002°02'0 0.0
2018-Jun-18 06:15N 48°38' W 002°02'0 0.3
2018-Jun-18 05:57N 48°38' W 002°02'511.8
2018-Jun-18 05:30N 48°43' W 002°07'815.0
2018-Jun-18 04:59N 48°49' W 002°13'2414.4
2018-Jun-18 03:20N 49°12' W 002°24'615.6
2018-Jun-18 02:56N 49°18' W 002°21'716.1
2018-Jun-18 02:30N 49°24' W 002°16'917.4
2018-Jun-18 02:00N 49°32' W 002°10'6614.6
2018-Jun-17 21:30N 50°26' W 001°12'612.5
2018-Jun-17 20:59N 50°31' W 001°06'613.0
2018-Jun-17 20:30N 50°36' W 001°01'613.0
2018-Jun-17 20:01N 50°43' W 000°59'713.4
2018-Jun-17 19:30N 50°48' W 001°07'1 2.3
2018-Jun-17 18:58N 50°49' W 001°06'0 0.0
2018-Jun-17 18:28N 50°49' W 001°06'0 0.0
2018-Jun-17 17:58N 50°49' W 001°06'0 0.0
2018-Jun-17 17:25N 50°49' W 001°06'0 0.6
2018-Jun-17 17:01N 50°49' W 001°06'510.9
2018-Jun-17 16:30N 50°44' W 001°03'713.0
2018-Jun-17 16:00N 50°37' W 001°07'612.3
2018-Jun-17 15:30N 50°32' W 001°13'713.4
2018-Jun-17 15:01N 50°27' W 001°18'5917.2
2018-Jun-17 11:36N 49°35' W 002°01'221.1
2018-Jun-17 11:30N 49°33' W 002°01'1121.1
2018-Jun-17 10:58N 49°22' W 001°56'1620.3
2018-Jun-17 10:10N 49°06' W 001°51'818.8
2018-Jun-17 09:45N 48°59' W 001°54'819.8
2018-Jun-17 09:21N 48°51' W 001°59'819.8
2018-Jun-17 08:58N 48°44' W 002°00'5 2.2
2018-Jun-17 06:34N 48°38' W 002°02'0 0.0
2018-Jun-17 06:19N 48°38' W 002°02'0 0.3
2018-Jun-17 06:00N 48°38' W 002°02'510.6
2018-Jun-17 05:30N 48°43' W 002°07'713.6
2018-Jun-17 05:00N 48°49' W 002°11'816.0
2018-Jun-17 04:30N 48°54' W 002°20'917.3
2018-Jun-17 03:59N 49°03' W 002°23'917.7
2018-Jun-17 03:29N 49°11' W 002°24'919.2
2018-Jun-17 03:00N 49°20' W 002°19'1020.5
2018-Jun-17 02:30N 49°29' W 002°12'1020.9
2018-Jun-17 02:00N 49°38' W 002°05'1121.1
2018-Jun-17 01:30N 49°48' W 001°59'713.5
2018-Jun-17 01:00N 49°49' W 001°48'917.6
2018-Jun-17 00:29N 49°52' W 001°35'611.8
2018-Jun-16 23:57N 49°53' W 001°25'3016.2
2018-Jun-16 22:07N 50°22' W 001°19'111.6
2018-Jun-16 22:00N 50°23' W 001°17'612.1
2018-Jun-16 21:30N 50°28' W 001°12'611.7
2018-Jun-16 21:00N 50°32' W 001°06'612.2
2018-Jun-16 20:30N 50°37' W 000°60'612.3
2018-Jun-16 20:00N 50°43' W 001°00'612.9
2018-Jun-16 19:30N 50°48' W 001°07'1 2.0
2018-Jun-16 19:00N 50°49' W 001°06'0 0.0
2018-Jun-16 18:25N 50°49' W 001°06'0 0.0
2018-Jun-16 18:00N 50°49' W 001°06'0 0.0
2018-Jun-16 17:30N 50°49' W 001°06'1 1.9
2018-Jun-16 17:01N 50°48' W 001°07'612.1
2018-Jun-16 16:30N 50°43' W 001°02'713.4
2018-Jun-16 16:01N 50°37' W 001°07'713.7
2018-Jun-16 15:29N 50°31' W 001°14'714.6
2018-Jun-16 15:00N 50°26' W 001°21'6117.6
2018-Jun-16 11:31N 49°31' W 002°04'420.8
2018-Jun-16 11:19N 49°27' W 002°04'48 9.6
2018-Jun-16 06:16N 48°38' W 002°02'0 0.3
2018-Jun-16 06:00N 48°38' W 002°02'611.4
2018-Jun-16 05:26N 48°44' W 002°07'711.8
2018-Jun-16 04:53N 48°49' W 002°13'716.3
2018-Jun-16 04:28N 48°54' W 002°21'817.1
2018-Jun-16 03:59N 49°02' W 002°22'1217.1
2018-Jun-16 03:18N 49°14' W 002°22'517.4
2018-Jun-16 03:00N 49°19' W 002°21'918.2
2018-Jun-16 02:30N 49°27' W 002°14'918.1
2018-Jun-16 02:00N 49°35' W 002°08'2616.5
2018-Jun-16 00:27N 49°57' W 001°49'714.8
2018-Jun-15 23:58N 50°04' W 001°44'1513.4
2018-Jun-15 22:49N 50°15' W 001°27'412.3
2018-Jun-15 22:30N 50°18' W 001°23'612.4
2018-Jun-15 21:59N 50°22' W 001°16'612.2
2018-Jun-15 21:30N 50°27' W 001°11'611.7
2018-Jun-15 21:00N 50°32' W 001°05'612.4
2018-Jun-15 20:30N 50°37' W 001°00'612.3
2018-Jun-15 20:00N 50°43' W 001°00'612.6
2018-Jun-15 19:30N 50°48' W 001°07'1 2.0
2018-Jun-15 18:59N 50°49' W 001°06'0 0.0
2018-Jun-15 18:29N 50°49' W 001°06'0 0.0
2018-Jun-15 17:59N 50°49' W 001°06'0 0.0
2018-Jun-15 17:29N 50°49' W 001°06'1 2.2
2018-Jun-15 17:00N 50°48' W 001°07'612.3
2018-Jun-15 16:30N 50°43' W 001°01'714.4
2018-Jun-15 16:01N 50°36' W 001°01'816.7
2018-Jun-15 15:30N 50°30' W 001°10'817.0
2018-Jun-15 15:00N 50°23' W 001°17'917.1
2018-Jun-15 14:30N 50°16' W 001°25'917.2
2018-Jun-15 14:00N 50°08' W 001°32'817.3
2018-Jun-15 13:30N 50°01' W 001°40'917.2
2018-Jun-15 13:00N 49°56' W 001°50'917.8
2018-Jun-15 12:30N 49°49' W 001°59'917.0
2018-Jun-15 12:00N 49°42' W 002°05'918.3
2018-Jun-15 11:30N 49°33' W 002°10'1020.0
2018-Jun-15 11:00N 49°24' W 002°16'4318.8
2018-Jun-15 08:43N 48°41' W 002°06'0 0.1
2018-Jun-15 05:39N 48°41' W 002°06'313.9
2018-Jun-15 05:25N 48°45' W 002°07'2715.6
2018-Jun-15 03:42N 49°09' W 002°23'314.0
2018-Jun-15 03:31N 49°12' W 002°23'713.1
2018-Jun-15 03:00N 49°19' W 002°21'713.9
2018-Jun-15 02:30N 49°25' W 002°16'714.4
2018-Jun-15 02:00N 49°31' W 002°12'714.7
2018-Jun-15 01:30N 49°38' W 002°07'1016.4
2018-Jun-15 00:52N 49°48' W 002°01'4914.6
2018-Jun-14 21:30N 50°28' W 001°16'612.6
2018-Jun-14 21:01N 50°33' W 001°11'612.5
2018-Jun-14 20:31N 50°38' W 001°06'611.5
2018-Jun-14 20:01N 50°44' W 001°04'5 9.9
2018-Jun-14 19:31N 50°49' W 001°06'0 0.3
2018-Jun-14 18:58N 50°49' W 001°06'0 0.0
2018-Jun-14 18:28N 50°49' W 001°06'0 0.0
2018-Jun-14 17:58N 50°49' W 001°06'0 0.6
2018-Jun-14 17:30N 50°49' W 001°06'510.4
2018-Jun-14 17:00N 50°44' W 001°03'611.2
2018-Jun-14 16:30N 50°38' W 001°02'918.2
2018-Jun-14 16:00N 50°30' W 001°10'918.0
2018-Jun-14 15:30N 50°23' W 001°18'917.6
2018-Jun-14 14:59N 50°16' W 001°27'1416.9
2018-Jun-14 14:10N 50°05' W 001°40'416.5
2018-Jun-14 13:56N 50°02' W 001°43'716.3
2018-Jun-14 13:30N 49°56' W 001°49'816.3
2018-Jun-14 13:01N 49°49' W 001°57'914.0
2018-Jun-14 12:23N 49°42' W 002°03'615.6
2018-Jun-14 12:00N 49°36' W 002°07'917.8
2018-Jun-14 11:30N 49°28' W 002°13'918.6
2018-Jun-14 11:00N 49°20' W 002°19'2620.0
2018-Jun-14 09:43N 48°54' W 002°19'521.4
2018-Jun-14 09:29N 48°50' W 002°15'1020.5
2018-Jun-14 09:00N 48°42' W 002°07'5 1.7
2018-Jun-14 06:14N 48°38' W 002°02'0 1.4
2018-Jun-14 06:00N 48°39' W 002°02'5 9.9
2018-Jun-14 05:30N 48°43' W 002°07'815.3
2018-Jun-14 05:00N 48°49' W 002°13'1016.3
2018-Jun-14 04:23N 48°57' W 002°22'616.0
2018-Jun-14 03:59N 49°04' W 002°22'916.4
2018-Jun-14 03:26N 49°13' W 002°22'715.3
2018-Jun-14 03:00N 49°19' W 002°20'713.6
2018-Jun-14 02:30N 49°25' W 002°15'713.3
2018-Jun-14 02:00N 49°31' W 002°11'714.0
2018-Jun-14 01:30N 49°38' W 002°07'815.3
2018-Jun-14 01:00N 49°45' W 002°03'714.1
2018-Jun-14 00:30N 49°51' W 001°57'713.3
2018-Jun-14 00:01N 49°56' W 001°50'713.1
2018-Jun-13 23:31N 49°59' W 001°41'815.5
2018-Jun-13 23:00N 50°06' W 001°37'815.1
2018-Jun-13 22:31N 50°13' W 001°31'814.7
2018-Jun-13 21:59N 50°19' W 001°24'714.2
2018-Jun-13 21:30N 50°25' W 001°18'713.6
2018-Jun-13 21:00N 50°30' W 001°12'612.9
2018-Jun-13 20:30N 50°36' W 001°07'611.4
2018-Jun-13 20:00N 50°41' W 001°03'713.1
2018-Jun-13 19:30N 50°47' W 001°06'2 3.4
2018-Jun-13 18:59N 50°49' W 001°06'0 0.0
2018-Jun-13 18:29N 50°49' W 001°06'0 0.0
2018-Jun-13 17:59N 50°49' W 001°06'0 0.0
2018-Jun-13 17:29N 50°49' W 001°06'0 0.0
2018-Jun-13 16:59N 50°49' W 001°06'0 0.0
2018-Jun-13 16:29N 50°49' W 001°06'0 0.0
2018-Jun-13 15:59N 50°49' W 001°06'0 0.0
2018-Jun-13 15:29N 50°49' W 001°06'0 0.0
2018-Jun-13 14:59N 50°49' W 001°06'0 0.0
2018-Jun-13 14:29N 50°49' W 001°06'0 0.0
2018-Jun-13 13:59N 50°49' W 001°06'0 0.0
2018-Jun-13 13:29N 50°49' W 001°06'0 0.0
2018-Jun-13 12:59N 50°49' W 001°06'0 0.0
2018-Jun-13 12:29N 50°49' W 001°06'0 0.0
2018-Jun-13 11:59N 50°49' W 001°06'0 0.0
2018-Jun-13 11:29N 50°49' W 001°06'0 0.0
2018-Jun-13 10:59N 50°49' W 001°06'0 0.0
2018-Jun-13 10:29N 50°49' W 001°06'0 0.0
2018-Jun-13 09:59N 50°49' W 001°06'0 0.0
2018-Jun-13 09:29N 50°49' W 001°06'0 0.0
2018-Jun-13 08:59N 50°49' W 001°06'0 0.0
2018-Jun-13 08:29N 50°49' W 001°06'0 0.0
2018-Jun-13 07:59N 50°49' W 001°06'0 0.0
2018-Jun-13 07:29N 50°49' W 001°06'0 0.0
2018-Jun-13 06:59N 50°49' W 001°06'0 0.8
2018-Jun-13 06:30N 50°49' W 001°06'510.3
2018-Jun-13 06:00N 50°44' W 001°03'713.3
2018-Jun-13 05:30N 50°38' W 000°59'612.7
2018-Jun-13 05:00N 50°33' W 001°05'713.2
2018-Jun-13 04:30N 50°28' W 001°13'815.9
2018-Jun-13 04:00N 50°22' W 001°21'715.3
2018-Jun-13 03:30N 50°16' W 001°28'715.0
2018-Jun-13 03:01N 50°09' W 001°33'715.0
2018-Jun-13 02:31N 50°03' W 001°40'714.5
2018-Jun-13 02:00N 49°58' W 001°47'714.2
2018-Jun-13 01:30N 49°52' W 001°54'611.8
2018-Jun-13 01:00N 49°47' W 001°59'9 7.1
2018-Jun-12 23:48N 49°39' W 002°03'3 7.6
2018-Jun-12 23:26N 49°36' W 002°05'4 8.7
2018-Jun-12 23:00N 49°33' W 002°08'5 9.5
2018-Jun-12 22:30N 49°29' W 002°12'510.6
2018-Jun-12 22:00N 49°24' W 002°16'611.3
2018-Jun-12 21:29N 49°19' W 002°20'715.1
2018-Jun-12 20:59N 49°12' W 002°23'37 3.9
2018-Jun-12 11:43N 48°38' W 002°02'0 0.0
2018-Jun-12 11:19N 48°38' W 002°02'0 0.0
2018-Jun-12 09:31N 48°38' W 002°02'  
Track history (hours):
 
Tides and Currents Weather Stations Pressure Air Temp Water Temp Dewpoint Dewpoint Depression Visibility Wind Speed Wind Dir Waves Ship Positions

Bretagne

Operator: Brittany Ferries

Last reported at 2018-Jun-22 05:28 UTC. Time now 2018-Jun-22 09:06 UTC.
Position N 48°44' W 002°07'.

Length 151 m; beam 27 m.

Type: Ship. MMSI: 227286000.

Date/timePositionNaut miles runAvg speedWind from/ knotsBaromVisibWave heightAir tempDewpointWater temp
2018-Jun-22 05:28N 48°44' W 002°07'2811.8
2018-Jun-22 03:06N 49°10' W 002°22'211.2
2018-Jun-22 02:53N 49°12' W 002°22'511.4
2018-Jun-22 02:28N 49°17' W 002°21'614.0
2018-Jun-22 02:00N 49°23' W 002°17'713.9
2018-Jun-22 01:30N 49°29' W 002°13'714.1
2018-Jun-22 01:00N 49°36' W 002°09'1113.1
2018-Jun-22 00:12N 49°45' W 002°01'314.3
2018-Jun-22 00:00N 49°47' W 001°59'3416.5
2018-Jun-21 21:55N 50°16' W 001°29'917.3
2018-Jun-21 21:23N 50°24' W 001°21'717.2
2018-Jun-21 20:58N 50°30' W 001°15'817.8
2018-Jun-21 20:31N 50°36' W 001°08'713.9
2018-Jun-21 20:01N 50°43' W 001°03'611.5
2018-Jun-21 19:31N 50°48' W 001°07'1 1.8
2018-Jun-21 19:00N 50°49' W 001°06'0 0.0
2018-Jun-21 18:30N 50°49' W 001°06'0 0.0
2018-Jun-21 18:00N 50°49' W 001°06'0 0.0
2018-Jun-21 17:30N 50°49' W 001°06'1 1.3
2018-Jun-21 17:00N 50°49' W 001°07'611.3
2018-Jun-21 16:30N 50°43' W 001°04'611.8
2018-Jun-21 16:00N 50°38' W 001°06'816.2
2018-Jun-21 15:30N 50°31' W 001°13'6318.4
2018-Jun-21 12:04N 49°37' W 002°06'220.9
2018-Jun-21 12:00N 49°36' W 002°07'1020.2
2018-Jun-21 11:30N 49°27' W 002°14'1019.7
2018-Jun-21 11:00N 49°18' W 002°20'2317.9
2018-Jun-21 09:43N 48°55' W 002°20'417.0
2018-Jun-21 09:30N 48°52' W 002°18'917.5
2018-Jun-21 09:00N 48°45' W 002°09'816.4
2018-Jun-21 08:30N 48°39' W 002°02'0 0.0
2018-Jun-21 05:04N 48°38' W 002°02'2 8.3
2018-Jun-21 04:53N 48°39' W 002°04'513.0
2018-Jun-21 04:30N 48°44' W 002°07'814.4
2018-Jun-21 03:57N 48°50' W 002°15'613.2
2018-Jun-21 03:30N 48°54' W 002°21'510.6
2018-Jun-21 03:00N 48°60' W 002°22'511.2
2018-Jun-21 02:30N 49°05' W 002°22'713.9
2018-Jun-21 01:59N 49°12' W 002°22'714.1
2018-Jun-21 01:30N 49°19' W 002°19'714.8
2018-Jun-21 01:00N 49°26' W 002°15'815.9
2018-Jun-21 00:31N 49°33' W 002°11'815.2
2018-Jun-21 00:01N 49°40' W 002°06'813.8
2018-Jun-20 23:27N 49°47' W 002°00'715.8
2018-Jun-20 23:00N 49°53' W 001°54'4018.9
2018-Jun-20 20:54N 50°26' W 001°19'919.6
2018-Jun-20 20:28N 50°33' W 001°12'818.7
2018-Jun-20 20:00N 50°40' W 001°04'713.2
2018-Jun-20 19:31N 50°46' W 001°06'2 4.4
2018-Jun-20 19:00N 50°49' W 001°06'0 0.0
2018-Jun-20 18:30N 50°49' W 001°06'0 0.0
2018-Jun-20 18:00N 50°49' W 001°06'0 0.0
2018-Jun-20 17:30N 50°49' W 001°06'0 0.0
2018-Jun-20 17:00N 50°49' W 001°06'0 0.0
2018-Jun-20 16:30N 50°49' W 001°06'0 0.0
2018-Jun-20 16:00N 50°49' W 001°06'0 0.0
2018-Jun-20 15:30N 50°49' W 001°06'0 0.0
2018-Jun-20 15:00N 50°49' W 001°06'0 0.0
2018-Jun-20 14:30N 50°49' W 001°06'0 0.0
2018-Jun-20 14:00N 50°49' W 001°06'0 0.0
2018-Jun-20 13:30N 50°49' W 001°06'0 0.0
2018-Jun-20 13:00N 50°49' W 001°06'0 0.0
2018-Jun-20 12:30N 50°49' W 001°06'0 0.0
2018-Jun-20 12:00N 50°49' W 001°06'0 0.0
2018-Jun-20 11:30N 50°49' W 001°06'0 0.0
2018-Jun-20 11:00N 50°49' W 001°06'0 0.0
2018-Jun-20 10:30N 50°49' W 001°06'0 0.0
2018-Jun-20 10:00N 50°49' W 001°06'0 0.0
2018-Jun-20 09:30N 50°49' W 001°06'0 0.0
2018-Jun-20 09:00N 50°49' W 001°06'0 0.0
2018-Jun-20 08:30N 50°49' W 001°06'0 0.0
2018-Jun-20 08:00N 50°49' W 001°06'0 0.0
2018-Jun-20 07:30N 50°49' W 001°06'0 0.0
2018-Jun-20 07:00N 50°49' W 001°06'0 0.2
2018-Jun-20 06:30N 50°49' W 001°06'5 9.1
2018-Jun-20 06:01N 50°44' W 001°04'612.4
2018-Jun-20 05:30N 50°38' W 001°06'713.8
2018-Jun-20 05:00N 50°33' W 001°13'714.2
2018-Jun-20 04:30N 50°27' W 001°19'714.9
2018-Jun-20 04:00N 50°21' W 001°27'713.2
2018-Jun-20 03:30N 50°16' W 001°33'812.5
2018-Jun-20 02:54N 50°09' W 001°37'614.3
2018-Jun-20 02:30N 50°04' W 001°42'816.2
2018-Jun-20 02:00N 49°58' W 001°51'815.3
2018-Jun-20 01:28N 49°52' W 001°58'714.0
2018-Jun-20 01:00N 49°46' W 002°03'814.8
2018-Jun-20 00:29N 49°38' W 002°06'613.3
2018-Jun-20 00:00N 49°33' W 002°10'713.4
2018-Jun-19 23:30N 49°27' W 002°15'713.6
2018-Jun-19 23:00N 49°20' W 002°19'713.7
2018-Jun-19 22:30N 49°14' W 002°22'38 3.2
2018-Jun-19 10:37N 48°38' W 002°02'2 3.9
2018-Jun-19 10:13N 48°39' W 002°04'2 9.1
2018-Jun-19 10:00N 48°41' W 002°06'4 8.2
2018-Jun-19 09:28N 48°45' W 002°08'3 5.7
2018-Jun-19 09:00N 48°43' W 002°06'5 3.8
2018-Jun-19 07:39N 48°38' W 002°02'0 0.0
2018-Jun-19 07:27N 48°38' W 002°02'0 0.0
2018-Jun-19 06:57N 48°38' W 002°02'0 0.2
2018-Jun-19 06:30N 48°38' W 002°02'5 9.9
2018-Jun-19 06:00N 48°42' W 002°07'713.9
2018-Jun-19 05:27N 48°48' W 002°13'714.4
2018-Jun-19 05:00N 48°53' W 002°20'713.1
2018-Jun-19 04:30N 48°60' W 002°22'814.4
2018-Jun-19 03:55N 49°08' W 002°23'715.1
2018-Jun-19 03:28N 49°15' W 002°23'817.6
2018-Jun-19 03:00N 49°22' W 002°18'817.0
2018-Jun-19 02:30N 49°30' W 002°12'816.8
2018-Jun-19 02:00N 49°37' W 002°06'815.8
2018-Jun-19 01:30N 49°45' W 002°00'1013.9
2018-Jun-19 00:46N 49°52' W 001°49'413.8
2018-Jun-19 00:30N 49°54' W 001°45'712.1
2018-Jun-18 23:55N 49°59' W 001°38'2412.3
2018-Jun-18 21:57N 50°21' W 001°19'613.8
2018-Jun-18 21:30N 50°26' W 001°14'713.9
2018-Jun-18 21:01N 50°32' W 001°08'714.4
2018-Jun-18 20:31N 50°37' W 001°01'611.9
2018-Jun-18 20:00N 50°43' W 001°01'612.3
2018-Jun-18 19:30N 50°48' W 001°07'1 1.4
2018-Jun-18 18:56N 50°49' W 001°06'0 0.0
2018-Jun-18 18:29N 50°49' W 001°06'0 0.0
2018-Jun-18 17:58N 50°49' W 001°06'0 0.0
2018-Jun-18 17:28N 50°49' W 001°06'0 0.7
2018-Jun-18 17:00N 50°49' W 001°06'510.6
2018-Jun-18 16:31N 50°44' W 001°03'713.3
2018-Jun-18 16:00N 50°37' W 001°07'612.1
2018-Jun-18 15:30N 50°33' W 001°13'713.6
2018-Jun-18 14:59N 50°27' W 001°19'1015.1
2018-Jun-18 14:19N 50°18' W 001°27'1416.1
2018-Jun-18 13:27N 50°07' W 001°41'1117.3
2018-Jun-18 12:49N 49°58' W 001°51'618.8
2018-Jun-18 12:28N 49°52' W 001°54'920.4
2018-Jun-18 12:00N 49°44' W 002°02'1122.0
2018-Jun-18 11:29N 49°33' W 001°59'1121.0
2018-Jun-18 10:59N 49°22' W 001°56'1020.2
2018-Jun-18 10:29N 49°13' W 001°52'919.5
2018-Jun-18 10:00N 49°03' W 001°50'1020.3
2018-Jun-18 09:30N 48°55' W 001°58'1119.3
2018-Jun-18 08:55N 48°44' W 002°00'512.2
2018-Jun-18 08:30N 48°39' W 002°02'0 0.2
2018-Jun-18 07:03N 48°38' W 002°02'0 0.0
2018-Jun-18 06:15N 48°38' W 002°02'0 0.3
2018-Jun-18 05:57N 48°38' W 002°02'511.8
2018-Jun-18 05:30N 48°43' W 002°07'815.0
2018-Jun-18 04:59N 48°49' W 002°13'2414.4
2018-Jun-18 03:20N 49°12' W 002°24'615.6
2018-Jun-18 02:56N 49°18' W 002°21'716.1
2018-Jun-18 02:30N 49°24' W 002°16'917.4
2018-Jun-18 02:00N 49°32' W 002°10'6614.6
2018-Jun-17 21:30N 50°26' W 001°12'612.5
2018-Jun-17 20:59N 50°31' W 001°06'613.0
2018-Jun-17 20:30N 50°36' W 001°01'613.0
2018-Jun-17 20:01N 50°43' W 000°59'713.4
2018-Jun-17 19:30N 50°48' W 001°07'1 2.3
2018-Jun-17 18:58N 50°49' W 001°06'0 0.0
2018-Jun-17 18:28N 50°49' W 001°06'0 0.0
2018-Jun-17 17:58N 50°49' W 001°06'0 0.0
2018-Jun-17 17:25N 50°49' W 001°06'0 0.6
2018-Jun-17 17:01N 50°49' W 001°06'510.9
2018-Jun-17 16:30N 50°44' W 001°03'713.0
2018-Jun-17 16:00N 50°37' W 001°07'612.3
2018-Jun-17 15:30N 50°32' W 001°13'713.4
2018-Jun-17 15:01N 50°27' W 001°18'5917.2
2018-Jun-17 11:36N 49°35' W 002°01'221.1
2018-Jun-17 11:30N 49°33' W 002°01'1121.1
2018-Jun-17 10:58N 49°22' W 001°56'1620.3
2018-Jun-17 10:10N 49°06' W 001°51'818.8
2018-Jun-17 09:45N 48°59' W 001°54'819.8
2018-Jun-17 09:21N 48°51' W 001°59'819.8
2018-Jun-17 08:58N 48°44' W 002°00'5 2.2
2018-Jun-17 06:34N 48°38' W 002°02'0 0.0
2018-Jun-17 06:19N 48°38' W 002°02'0 0.3
2018-Jun-17 06:00N 48°38' W 002°02'510.6
2018-Jun-17 05:30N 48°43' W 002°07'713.6
2018-Jun-17 05:00N 48°49' W 002°11'816.0
2018-Jun-17 04:30N 48°54' W 002°20'917.3
2018-Jun-17 03:59N 49°03' W 002°23'917.7
2018-Jun-17 03:29N 49°11' W 002°24'919.2
2018-Jun-17 03:00N 49°20' W 002°19'1020.5
2018-Jun-17 02:30N 49°29' W 002°12'1020.9
2018-Jun-17 02:00N 49°38' W 002°05'1121.1
2018-Jun-17 01:30N 49°48' W 001°59'713.5
2018-Jun-17 01:00N 49°49' W 001°48'917.6
2018-Jun-17 00:29N 49°52' W 001°35'611.8
2018-Jun-16 23:57N 49°53' W 001°25'3016.2
2018-Jun-16 22:07N 50°22' W 001°19'111.6
2018-Jun-16 22:00N 50°23' W 001°17'612.1
2018-Jun-16 21:30N 50°28' W 001°12'611.7
2018-Jun-16 21:00N 50°32' W 001°06'612.2
2018-Jun-16 20:30N 50°37' W 000°60'612.3
2018-Jun-16 20:00N 50°43' W 001°00'612.9
2018-Jun-16 19:30N 50°48' W 001°07'1 2.0
2018-Jun-16 19:00N 50°49' W 001°06'0 0.0
2018-Jun-16 18:25N 50°49' W 001°06'0 0.0
2018-Jun-16 18:00N 50°49' W 001°06'0 0.0
2018-Jun-16 17:30N 50°49' W 001°06'1 1.9
2018-Jun-16 17:01N 50°48' W 001°07'612.1
2018-Jun-16 16:30N 50°43' W 001°02'713.4
2018-Jun-16 16:01N 50°37' W 001°07'713.7
2018-Jun-16 15:29N 50°31' W 001°14'714.6
2018-Jun-16 15:00N 50°26' W 001°21'6117.6
2018-Jun-16 11:31N 49°31' W 002°04'420.8
2018-Jun-16 11:19N 49°27' W 002°04'48 9.6
2018-Jun-16 06:16N 48°38' W 002°02'0 0.3
2018-Jun-16 06:00N 48°38' W 002°02'611.4
2018-Jun-16 05:26N 48°44' W 002°07'711.8
2018-Jun-16 04:53N 48°49' W 002°13'716.3
2018-Jun-16 04:28N 48°54' W 002°21'817.1
2018-Jun-16 03:59N 49°02' W 002°22'1217.1
2018-Jun-16 03:18N 49°14' W 002°22'517.4
2018-Jun-16 03:00N 49°19' W 002°21'918.2
2018-Jun-16 02:30N 49°27' W 002°14'918.1
2018-Jun-16 02:00N 49°35' W 002°08'2616.5
2018-Jun-16 00:27N 49°57' W 001°49'714.8
2018-Jun-15 23:58N 50°04' W 001°44'1513.4
2018-Jun-15 22:49N 50°15' W 001°27'412.3
2018-Jun-15 22:30N 50°18' W 001°23'612.4
2018-Jun-15 21:59N 50°22' W 001°16'612.2
2018-Jun-15 21:30N 50°27' W 001°11'611.7
2018-Jun-15 21:00N 50°32' W 001°05'612.4
2018-Jun-15 20:30N 50°37' W 001°00'612.3
2018-Jun-15 20:00N 50°43' W 001°00'612.6
2018-Jun-15 19:30N 50°48' W 001°07'1 2.0
2018-Jun-15 18:59N 50°49' W 001°06'0 0.0
2018-Jun-15 18:29N 50°49' W 001°06'0 0.0
2018-Jun-15 17:59N 50°49' W 001°06'0 0.0
2018-Jun-15 17:29N 50°49' W 001°06'1 2.2
2018-Jun-15 17:00N 50°48' W 001°07'612.3
2018-Jun-15 16:30N 50°43' W 001°01'714.4
2018-Jun-15 16:01N 50°36' W 001°01'816.7
2018-Jun-15 15:30N 50°30' W 001°10'817.0
2018-Jun-15 15:00N 50°23' W 001°17'917.1
2018-Jun-15 14:30N 50°16' W 001°25'917.2
2018-Jun-15 14:00N 50°08' W 001°32'817.3
2018-Jun-15 13:30N 50°01' W 001°40'917.2
2018-Jun-15 13:00N 49°56' W 001°50'917.8
2018-Jun-15 12:30N 49°49' W 001°59'917.0
2018-Jun-15 12:00N 49°42' W 002°05'918.3
2018-Jun-15 11:30N 49°33' W 002°10'1020.0
2018-Jun-15 11:00N 49°24' W 002°16'4318.8
2018-Jun-15 08:43N 48°41' W 002°06'0 0.1
2018-Jun-15 05:39N 48°41' W 002°06'313.9
2018-Jun-15 05:25N 48°45' W 002°07'2715.6
2018-Jun-15 03:42N 49°09' W 002°23'314.0
2018-Jun-15 03:31N 49°12' W 002°23'713.1
2018-Jun-15 03:00N 49°19' W 002°21'713.9
2018-Jun-15 02:30N 49°25' W 002°16'714.4
2018-Jun-15 02:00N 49°31' W 002°12'714.7
2018-Jun-15 01:30N 49°38' W 002°07'1016.4
2018-Jun-15 00:52N 49°48' W 002°01'4914.6
2018-Jun-14 21:30N 50°28' W 001°16'612.6
2018-Jun-14 21:01N 50°33' W 001°11'612.5
2018-Jun-14 20:31N 50°38' W 001°06'611.5
2018-Jun-14 20:01N 50°44' W 001°04'5 9.9
2018-Jun-14 19:31N 50°49' W 001°06'0 0.3
2018-Jun-14 18:58N 50°49' W 001°06'0 0.0
2018-Jun-14 18:28N 50°49' W 001°06'0 0.0
2018-Jun-14 17:58N 50°49' W 001°06'0 0.6
2018-Jun-14 17:30N 50°49' W 001°06'510.4
2018-Jun-14 17:00N 50°44' W 001°03'611.2
2018-Jun-14 16:30N 50°38' W 001°02'918.2
2018-Jun-14 16:00N 50°30' W 001°10'918.0
2018-Jun-14 15:30N 50°23' W 001°18'917.6
2018-Jun-14 14:59N 50°16' W 001°27'1416.9
2018-Jun-14 14:10N 50°05' W 001°40'416.5
2018-Jun-14 13:56N 50°02' W 001°43'716.3
2018-Jun-14 13:30N 49°56' W 001°49'816.3
2018-Jun-14 13:01N 49°49' W 001°57'914.0
2018-Jun-14 12:23N 49°42' W 002°03'615.6
2018-Jun-14 12:00N 49°36' W 002°07'917.8
2018-Jun-14 11:30N 49°28' W 002°13'918.6
2018-Jun-14 11:00N 49°20' W 002°19'2620.0
2018-Jun-14 09:43N 48°54' W 002°19'521.4
2018-Jun-14 09:29N 48°50' W 002°15'1020.5
2018-Jun-14 09:00N 48°42' W 002°07'5 1.7
2018-Jun-14 06:14N 48°38' W 002°02'0 1.4
2018-Jun-14 06:00N 48°39' W 002°02'5 9.9
2018-Jun-14 05:30N 48°43' W 002°07'815.3
2018-Jun-14 05:00N 48°49' W 002°13'1016.3
2018-Jun-14 04:23N 48°57' W 002°22'616.0
2018-Jun-14 03:59N 49°04' W 002°22'916.4
2018-Jun-14 03:26N 49°13' W 002°22'715.3
2018-Jun-14 03:00N 49°19' W 002°20'713.6
2018-Jun-14 02:30N 49°25' W 002°15'713.3
2018-Jun-14 02:00N 49°31' W 002°11'714.0
2018-Jun-14 01:30N 49°38' W 002°07'815.3
2018-Jun-14 01:00N 49°45' W 002°03'714.1
2018-Jun-14 00:30N 49°51' W 001°57'713.3
2018-Jun-14 00:01N 49°56' W 001°50'713.1
2018-Jun-13 23:31N 49°59' W 001°41'815.5
2018-Jun-13 23:00N 50°06' W 001°37'815.1
2018-Jun-13 22:31N 50°13' W 001°31'814.7
2018-Jun-13 21:59N 50°19' W 001°24'714.2
2018-Jun-13 21:30N 50°25' W 001°18'713.6
2018-Jun-13 21:00N 50°30' W 001°12'612.9
2018-Jun-13 20:30N 50°36' W 001°07'611.4
2018-Jun-13 20:00N 50°41' W 001°03'713.1
2018-Jun-13 19:30N 50°47' W 001°06'2 3.4
2018-Jun-13 18:59N 50°49' W 001°06'0 0.0
2018-Jun-13 18:29N 50°49' W 001°06'0 0.0
2018-Jun-13 17:59N 50°49' W 001°06'0 0.0
2018-Jun-13 17:29N 50°49' W 001°06'0 0.0
2018-Jun-13 16:59N 50°49' W 001°06'0 0.0
2018-Jun-13 16:29N 50°49' W 001°06'0 0.0
2018-Jun-13 15:59N 50°49' W 001°06'0 0.0
2018-Jun-13 15:29N 50°49' W 001°06'0 0.0
2018-Jun-13 14:59N 50°49' W 001°06'0 0.0
2018-Jun-13 14:29N 50°49' W 001°06'0 0.0
2018-Jun-13 13:59N 50°49' W 001°06'0 0.0
2018-Jun-13 13:29N 50°49' W 001°06'0 0.0
2018-Jun-13 12:59N 50°49' W 001°06'0 0.0
2018-Jun-13 12:29N 50°49' W 001°06'0 0.0
2018-Jun-13 11:59N 50°49' W 001°06'0 0.0
2018-Jun-13 11:29N 50°49' W 001°06'0 0.0
2018-Jun-13 10:59N 50°49' W 001°06'0 0.0
2018-Jun-13 10:29N 50°49' W 001°06'0 0.0
2018-Jun-13 09:59N 50°49' W 001°06'0 0.0
2018-Jun-13 09:29N 50°49' W 001°06'0 0.0
2018-Jun-13 08:59N 50°49' W 001°06'0 0.0
2018-Jun-13 08:29N 50°49' W 001°06'0 0.0
2018-Jun-13 07:59N 50°49' W 001°06'0 0.0
2018-Jun-13 07:29N 50°49' W 001°06'0 0.0
2018-Jun-13 06:59N 50°49' W 001°06'0 0.8
2018-Jun-13 06:30N 50°49' W 001°06'510.3
2018-Jun-13 06:00N 50°44' W 001°03'713.3
2018-Jun-13 05:30N 50°38' W 000°59'612.7
2018-Jun-13 05:00N 50°33' W 001°05'713.2
2018-Jun-13 04:30N 50°28' W 001°13'815.9
2018-Jun-13 04:00N 50°22' W 001°21'715.3
2018-Jun-13 03:30N 50°16' W 001°28'715.0
2018-Jun-13 03:01N 50°09' W 001°33'715.0
2018-Jun-13 02:31N 50°03' W 001°40'714.5
2018-Jun-13 02:00N 49°58' W 001°47'714.2
2018-Jun-13 01:30N 49°52' W 001°54'611.8
2018-Jun-13 01:00N 49°47' W 001°59'9 7.1
2018-Jun-12 23:48N 49°39' W 002°03'3 7.6
2018-Jun-12 23:26N 49°36' W 002°05'4 8.7
2018-Jun-12 23:00N 49°33' W 002°08'5 9.5
2018-Jun-12 22:30N 49°29' W 002°12'510.6
2018-Jun-12 22:00N 49°24' W 002°16'611.3
2018-Jun-12 21:29N 49°19' W 002°20'715.1
2018-Jun-12 20:59N 49°12' W 002°23'37 3.9
2018-Jun-12 11:43N 48°38' W 002°02'0 0.0
2018-Jun-12 11:19N 48°38' W 002°02'0 0.0
2018-Jun-12 09:31N 48°38' W 002°02'  

Dump ship's entire track history